createdAt,value
2019-03-26T00:01:03.152Z,98.34
2019-03-26T00:03:32.575Z,98.51
2019-03-26T00:06:02.208Z,98.74
2019-03-26T00:08:31.627Z,99.08
2019-03-26T00:11:01.037Z,99.54
2019-03-26T00:13:30.480Z,100.00
2019-03-26T00:15:59.965Z,100.00
2019-03-26T00:18:29.456Z,100.00
2019-03-26T00:20:58.984Z,100.00
2019-03-26T00:23:28.436Z,100.00
2019-03-26T00:25:57.904Z,100.00
2019-03-26T00:28:27.415Z,100.00
2019-03-26T00:30:56.868Z,100.00
2019-03-26T00:33:35.689Z,100.00
2019-03-26T00:35:57.500Z,100.00
2019-03-26T00:38:27.002Z,100.00
2019-03-26T00:40:56.425Z,100.00
2019-03-26T00:43:25.937Z,100.00
2019-03-26T00:45:55.441Z,100.00
2019-03-26T00:48:25.019Z,100.00
2019-03-26T00:50:54.432Z,100.00
2019-03-26T00:53:24.163Z,100.00
2019-03-26T00:55:53.590Z,100.00
2019-03-26T00:58:23.096Z,100.00
2019-03-26T01:00:52.561Z,100.00
2019-03-26T01:03:23.107Z,100.00
2019-03-26T01:05:52.600Z,100.00
2019-03-26T01:08:22.180Z,100.00
2019-03-26T01:10:55.255Z,100.00
2019-03-26T01:13:24.740Z,100.00
2019-03-26T01:15:54.158Z,100.00
2019-03-26T01:18:23.673Z,100.00
2019-03-26T01:20:53.114Z,100.00
2019-03-26T01:23:23.549Z,100.00
2019-03-26T01:25:53.156Z,100.00
2019-03-26T01:28:22.630Z,100.00
2019-03-26T01:30:52.456Z,100.00
2019-03-26T01:33:21.964Z,100.00
2019-03-26T01:35:51.383Z,100.00
2019-03-26T01:38:20.843Z,100.00
2019-03-26T01:40:50.279Z,100.00
2019-03-26T01:43:20.777Z,100.00
2019-03-26T01:45:50.292Z,100.00
2019-03-26T01:48:19.886Z,100.00
2019-03-26T01:50:49.475Z,100.00
2019-03-26T01:53:20.291Z,100.00
2019-03-26T01:55:49.953Z,100.00
2019-03-26T01:58:19.510Z,100.00
2019-03-26T02:00:49.056Z,100.00
2019-03-26T02:03:18.586Z,100.00
2019-03-26T02:05:48.134Z,100.00
2019-03-26T02:08:17.904Z,100.00
2019-03-26T02:10:47.390Z,100.00
2019-03-26T02:13:16.930Z,100.00
2019-03-26T02:15:46.371Z,99.85
2019-03-26T02:18:15.867Z,99.64
2019-03-26T02:20:45.297Z,99.32
2019-03-26T02:23:14.789Z,99.22
2019-03-26T02:25:44.198Z,99.25
2019-03-26T02:28:13.924Z,99.35
2019-03-26T02:30:43.410Z,99.54
2019-03-26T02:33:12.901Z,99.61
2019-03-26T02:35:42.497Z,99.47
2019-03-26T02:38:11.977Z,99.17
2019-03-26T02:40:41.405Z,98.84
2019-03-26T02:43:10.876Z,98.75
2019-03-26T02:45:40.468Z,98.71
2019-03-26T02:48:10.061Z,98.87
2019-03-26T02:50:39.493Z,98.80
2019-03-26T02:53:09.145Z,98.70
2019-03-26T02:55:39.091Z,98.63
2019-03-26T02:58:08.553Z,98.39
2019-03-26T03:00:38.008Z,98.26
2019-03-26T03:03:07.513Z,98.16
2019-03-26T03:05:36.934Z,98.11
2019-03-26T03:08:06.419Z,98.08
2019-03-26T03:10:36.123Z,98.08
2019-03-26T03:13:05.536Z,97.85
2019-03-26T03:15:35.004Z,97.81
2019-03-26T03:18:04.641Z,97.65
2019-03-26T03:20:34.055Z,97.62
2019-03-26T03:23:03.679Z,97.48
2019-03-26T03:25:33.088Z,97.48
2019-03-26T03:28:02.597Z,97.92
2019-03-26T03:30:32.016Z,98.05
2019-03-26T03:33:01.472Z,97.85
2019-03-26T03:35:30.871Z,97.85
2019-03-26T03:38:00.337Z,98.08
2019-03-26T03:40:29.822Z,98.21
2019-03-26T03:42:59.290Z,98.27
2019-03-26T03:45:29.267Z,98.25
2019-03-26T03:47:59.402Z,98.34
2019-03-26T03:50:30.858Z,98.40
2019-03-26T03:53:00.961Z,98.41
2019-03-26T03:55:31.511Z,98.35
2019-03-26T03:58:01.993Z,98.26
2019-03-26T04:00:40.029Z,98.44
2019-03-26T04:03:10.238Z,98.44
2019-03-26T04:05:39.987Z,98.46
2019-03-26T04:08:09.538Z,98.66
2019-03-26T04:10:39.019Z,98.80
2019-03-26T04:13:08.603Z,98.05
2019-03-26T04:15:38.192Z,98.05
2019-03-26T04:18:07.700Z,97.13
2019-03-26T04:20:37.115Z,96.03
2019-03-26T04:23:06.691Z,94.70
2019-03-26T04:25:37.383Z,94.16
2019-03-26T04:28:07.006Z,94.54
2019-03-26T04:30:36.477Z,94.54
2019-03-26T04:33:06.050Z,94.74
2019-03-26T04:35:36.522Z,95.22
2019-03-26T04:38:06.058Z,95.75
2019-03-26T04:40:35.621Z,96.36
2019-03-26T04:43:06.069Z,97.11
2019-03-26T04:45:35.521Z,97.40
2019-03-26T04:48:04.991Z,97.40
2019-03-26T04:50:34.632Z,97.63
2019-03-26T04:53:06.016Z,97.79
2019-03-26T04:55:35.492Z,97.91
2019-03-26T04:58:05.001Z,97.91
2019-03-26T05:00:39.008Z,98.03
2019-03-26T05:03:08.487Z,98.35
2019-03-26T05:05:42.012Z,98.70
2019-03-26T05:08:11.602Z,98.70
2019-03-26T05:10:41.240Z,98.55
2019-03-26T05:13:10.706Z,97.47
2019-03-26T05:15:40.644Z,97.47
2019-03-26T05:18:10.109Z,96.90
2019-03-26T05:20:39.620Z,95.82
2019-03-26T05:23:09.108Z,95.12
2019-03-26T05:25:38.567Z,94.98
2019-03-26T05:28:07.987Z,95.12
2019-03-26T05:30:37.486Z,95.12
2019-03-26T05:33:06.916Z,95.62
2019-03-26T05:35:36.330Z,95.53
2019-03-26T05:38:05.777Z,95.11
2019-03-26T05:40:36.192Z,94.62
2019-03-26T05:43:05.652Z,92.78
2019-03-26T05:45:36.033Z,92.78
2019-03-26T05:48:05.525Z,92.22
2019-03-26T05:50:35.019Z,92.73
2019-03-26T05:53:04.632Z,91.80
2019-03-26T05:55:35.180Z,91.80
2019-03-26T05:58:04.709Z,91.53
2019-03-26T06:00:34.131Z,90.99
2019-03-26T06:03:03.573Z,90.31
2019-03-26T06:05:32.983Z,90.31
2019-03-26T06:08:03.536Z,89.48
2019-03-26T06:10:32.969Z,88.97
2019-03-26T06:13:03.400Z,89.12
2019-03-26T06:15:33.203Z,88.93
2019-03-26T06:18:03.555Z,88.62
2019-03-26T06:20:32.996Z,87.98
2019-03-26T06:23:02.494Z,87.49
2019-03-26T06:25:31.936Z,87.54
2019-03-26T06:28:01.346Z,88.03
2019-03-26T06:30:30.770Z,88.03
2019-03-26T06:33:00.181Z,87.87
2019-03-26T06:35:30.567Z,88.02
2019-03-26T06:37:59.975Z,88.34
2019-03-26T06:40:29.404Z,88.14
2019-03-26T06:42:58.824Z,87.68
2019-03-26T06:45:28.398Z,87.68
2019-03-26T06:47:57.884Z,87.24
2019-03-26T06:50:27.432Z,86.97
2019-03-26T06:52:56.896Z,86.60
2019-03-26T06:55:26.332Z,87.05
2019-03-26T06:57:56.706Z,86.78
2019-03-26T07:00:35.456Z,86.04
2019-03-26T07:03:07.204Z,86.05
2019-03-26T07:05:36.664Z,84.59
2019-03-26T07:08:06.073Z,83.39
2019-03-26T07:10:35.666Z,83.24
2019-03-26T07:13:05.068Z,82.92
2019-03-26T07:15:34.483Z,83.46
2019-03-26T07:18:04.028Z,83.43
2019-03-26T07:20:33.446Z,82.78
2019-03-26T07:23:03.009Z,83.88
2019-03-26T07:25:32.617Z,84.11
2019-03-26T07:28:01.999Z,83.59
2019-03-26T07:30:39.213Z,84.21
2019-03-26T07:33:09.051Z,82.96
2019-03-26T07:35:38.643Z,83.16
2019-03-26T07:38:09.247Z,83.42
2019-03-26T07:40:38.735Z,84.25
2019-03-26T07:43:11.458Z,84.20
2019-03-26T07:45:41.011Z,83.93
2019-03-26T07:48:10.470Z,84.59
2019-03-26T07:50:40.023Z,85.69
2019-03-26T07:53:09.450Z,84.72
2019-03-26T07:55:38.908Z,85.01
2019-03-26T07:58:08.307Z,84.40
2019-03-26T08:00:38.462Z,84.23
2019-03-26T08:03:08.012Z,83.80
2019-03-26T08:05:37.583Z,83.81
2019-03-26T08:08:07.059Z,82.65
2019-03-26T08:10:36.490Z,83.60
2019-03-26T08:13:06.200Z,82.90
2019-03-26T08:15:35.631Z,81.86
2019-03-26T08:18:04.999Z,81.06
2019-03-26T08:20:34.466Z,79.66
2019-03-26T08:23:03.947Z,80.21
2019-03-26T08:25:34.064Z,79.31
2019-03-26T08:28:05.083Z,78.80
2019-03-26T08:30:35.763Z,80.48
2019-03-26T08:33:05.245Z,77.88
2019-03-26T08:35:35.771Z,76.55
2019-03-26T08:38:12.497Z,77.71
2019-03-26T08:40:36.360Z,75.93
2019-03-26T08:43:05.952Z,75.81
2019-03-26T08:45:36.278Z,76.52
2019-03-26T08:48:06.041Z,77.05
2019-03-26T08:50:35.470Z,76.50
2019-03-26T08:53:05.187Z,76.76
2019-03-26T08:55:34.650Z,77.85
2019-03-26T08:58:04.187Z,76.71
2019-03-26T09:00:35.596Z,76.35
2019-03-26T09:03:05.166Z,77.00
2019-03-26T09:05:34.592Z,77.14
2019-03-26T09:08:04.128Z,76.71
2019-03-26T09:10:33.546Z,75.26
2019-03-26T09:13:02.981Z,75.26
2019-03-26T09:15:33.473Z,73.74
2019-03-26T09:18:02.995Z,73.48
2019-03-26T09:20:32.462Z,74.94
2019-03-26T09:23:01.952Z,73.90
2019-03-26T09:25:31.350Z,72.89
2019-03-26T09:28:00.790Z,71.80
2019-03-26T09:30:30.196Z,72.97
2019-03-26T09:32:59.658Z,72.45
2019-03-26T09:35:29.068Z,71.31
2019-03-26T09:37:58.490Z,70.32
2019-03-26T09:40:27.990Z,72.26
2019-03-26T09:42:57.612Z,71.81
2019-03-26T09:45:33.249Z,71.63
2019-03-26T09:48:02.698Z,71.53
2019-03-26T09:50:36.494Z,70.36
2019-03-26T09:53:06.002Z,69.43
2019-03-26T09:55:35.532Z,69.68
2019-03-26T09:58:05.060Z,68.53
2019-03-26T10:00:34.587Z,68.03
2019-03-26T10:03:04.100Z,68.64
2019-03-26T10:05:33.515Z,66.56
2019-03-26T10:08:03.015Z,66.82
2019-03-26T10:10:32.419Z,67.02
2019-03-26T10:13:02.050Z,66.62
2019-03-26T10:15:31.467Z,67.37
2019-03-26T10:18:01.905Z,66.77
2019-03-26T10:20:31.313Z,66.10
2019-03-26T10:23:00.735Z,65.50
2019-03-26T10:25:30.143Z,67.93
2019-03-26T10:27:59.560Z,67.27
2019-03-26T10:30:33.888Z,67.51
2019-03-26T10:33:03.579Z,68.13
2019-03-26T10:35:33.172Z,67.61
2019-03-26T10:38:02.767Z,68.67
2019-03-26T10:40:37.059Z,69.08
2019-03-26T10:43:06.982Z,68.66
2019-03-26T10:45:36.537Z,70.19
2019-03-26T10:48:06.009Z,70.16
2019-03-26T10:50:35.471Z,70.49
2019-03-26T10:53:04.972Z,72.54
2019-03-26T10:55:34.426Z,72.50
2019-03-26T10:58:04.049Z,73.55
2019-03-26T11:00:33.470Z,72.24
2019-03-26T11:03:02.897Z,71.23
2019-03-26T11:05:32.293Z,70.80
2019-03-26T11:08:01.775Z,69.39
2019-03-26T11:10:31.350Z,67.74
2019-03-26T11:13:00.799Z,68.51
2019-03-26T11:15:30.397Z,68.20
2019-03-26T11:18:00.023Z,67.86
2019-03-26T11:20:29.545Z,68.94
2019-03-26T11:23:00.053Z,68.98
2019-03-26T11:25:29.492Z,69.70
2019-03-26T11:27:58.971Z,72.31
2019-03-26T11:30:28.448Z,76.29
2019-03-26T11:32:57.874Z,77.10
2019-03-26T11:35:27.412Z,78.50
2019-03-26T11:37:58.849Z,78.94
2019-03-26T11:40:28.386Z,78.67
2019-03-26T11:42:57.880Z,76.56
2019-03-26T11:45:27.308Z,74.67
2019-03-26T11:47:56.717Z,74.98
2019-03-26T11:50:26.315Z,75.66
2019-03-26T11:52:55.734Z,76.60
2019-03-26T11:55:25.141Z,76.37
2019-03-26T11:57:54.594Z,75.22
2019-03-26T12:00:31.759Z,75.03
2019-03-26T12:03:01.314Z,70.84
2019-03-26T12:05:30.717Z,70.06
2019-03-26T12:08:00.154Z,69.74
2019-03-26T12:10:29.552Z,68.89
2019-03-26T12:12:59.107Z,69.12
2019-03-26T12:15:28.522Z,70.13
2019-03-26T12:17:57.994Z,69.59
2019-03-26T12:20:27.508Z,69.72
2019-03-26T12:22:56.932Z,69.56
2019-03-26T12:25:26.350Z,70.47
2019-03-26T12:27:55.781Z,68.72
2019-03-26T12:30:34.144Z,68.13
2019-03-26T12:33:03.945Z,68.92
2019-03-26T12:35:33.526Z,67.96
2019-03-26T12:38:17.532Z,67.26
2019-03-26T12:40:47.118Z,68.62
2019-03-26T12:43:16.673Z,68.90
2019-03-26T12:45:46.239Z,68.83
2019-03-26T12:48:15.756Z,69.53
2019-03-26T12:50:46.354Z,69.71
2019-03-26T12:53:15.897Z,70.28
2019-03-26T12:55:45.411Z,69.50
2019-03-26T12:58:14.870Z,68.99
2019-03-26T13:00:44.333Z,68.73
2019-03-26T13:03:13.735Z,68.70
2019-03-26T13:05:44.316Z,68.43
2019-03-26T13:08:16.842Z,68.42
2019-03-26T13:10:53.609Z,68.13
2019-03-26T13:13:17.354Z,68.07
2019-03-26T13:15:47.061Z,68.33
2019-03-26T13:18:16.491Z,67.80
2019-03-26T13:20:45.919Z,67.58
2019-03-26T13:23:15.406Z,67.54
2019-03-26T13:25:44.886Z,68.16
2019-03-26T13:28:14.320Z,68.10
2019-03-26T13:30:43.808Z,70.16
2019-03-26T13:33:13.354Z,68.93
2019-03-26T13:35:42.765Z,67.88
2019-03-26T13:38:12.183Z,67.85
2019-03-26T13:40:41.697Z,69.31
2019-03-26T13:43:11.228Z,69.30
2019-03-26T13:45:40.719Z,70.33
2019-03-26T13:48:10.139Z,71.04
2019-03-26T13:50:39.720Z,70.01
2019-03-26T13:53:09.205Z,70.56
2019-03-26T13:55:38.735Z,69.67
2019-03-26T13:58:08.154Z,69.82
2019-03-26T14:00:39.267Z,69.60
2019-03-26T14:03:09.996Z,69.08
2019-03-26T14:05:39.424Z,69.44
2019-03-26T14:08:09.013Z,69.75
2019-03-26T14:10:41.186Z,68.75
2019-03-26T14:13:11.120Z,69.55
2019-03-26T14:15:40.609Z,68.42
2019-03-26T14:18:10.097Z,68.35
2019-03-26T14:20:39.589Z,68.53
2019-03-26T14:23:09.071Z,68.30
2019-03-26T14:25:40.632Z,68.31
2019-03-26T14:28:10.182Z,69.41
2019-03-26T14:30:44.322Z,69.09
2019-03-26T14:33:13.800Z,69.50
2019-03-26T14:35:43.357Z,68.98
2019-03-26T14:38:13.053Z,68.74
2019-03-26T14:40:54.155Z,69.68
2019-03-26T14:43:13.709Z,69.11
2019-03-26T14:45:43.194Z,69.32
2019-03-26T14:48:12.711Z,69.70
2019-03-26T14:50:42.148Z,69.24
2019-03-26T14:53:11.644Z,69.21
2019-03-26T14:55:41.088Z,69.18
2019-03-26T14:58:10.505Z,69.77
2019-03-26T15:00:40.221Z,68.99
2019-03-26T15:03:09.722Z,69.23
2019-03-26T15:05:39.344Z,69.72
2019-03-26T15:08:09.912Z,69.78
2019-03-26T15:10:39.401Z,69.37
2019-03-26T15:13:08.797Z,70.51
2019-03-26T15:15:38.286Z,70.63
2019-03-26T15:18:07.830Z,69.63
2019-03-26T15:20:37.476Z,69.93
2019-03-26T15:23:06.981Z,70.76
2019-03-26T15:25:36.534Z,71.04
2019-03-26T15:28:06.001Z,70.11
2019-03-26T15:30:35.903Z,68.56
2019-03-26T15:33:06.036Z,67.65
2019-03-26T15:35:35.588Z,66.76
2019-03-26T15:38:05.145Z,66.17
2019-03-26T15:40:34.703Z,66.13
2019-03-26T15:43:04.298Z,65.64
2019-03-26T15:45:33.805Z,66.19
2019-03-26T15:48:03.245Z,66.51
2019-03-26T15:50:44.366Z,67.01
2019-03-26T15:53:14.743Z,66.61
2019-03-26T15:55:44.609Z,66.74
2019-03-26T15:58:14.091Z,67.18
2019-03-26T16:00:43.573Z,66.64
2019-03-26T16:03:13.070Z,67.15
2019-03-26T16:05:42.555Z,66.26
2019-03-26T16:08:12.053Z,67.08
2019-03-26T16:10:41.460Z,67.41
2019-03-26T16:13:10.889Z,67.49
2019-03-26T16:15:44.651Z,68.01
2019-03-26T16:18:12.351Z,68.83
2019-03-26T16:20:41.754Z,68.30
2019-03-26T16:23:11.197Z,68.30
2019-03-26T16:25:40.599Z,68.76
2019-03-26T16:28:10.030Z,69.00
2019-03-26T16:30:39.448Z,69.74
2019-03-26T16:33:08.877Z,69.87
2019-03-26T16:35:40.406Z,70.29
2019-03-26T16:38:10.017Z,70.09
2019-03-26T16:40:39.432Z,69.97
2019-03-26T16:43:09.012Z,70.10
2019-03-26T16:45:38.582Z,70.23
2019-03-26T16:48:08.002Z,69.85
2019-03-26T16:50:37.513Z,70.27
2019-03-26T16:53:07.049Z,70.76
2019-03-26T16:55:36.590Z,71.32
2019-03-26T16:58:06.118Z,72.49
2019-03-26T17:00:35.846Z,73.05
2019-03-26T17:03:05.713Z,73.46
2019-03-26T17:10:10.850Z,79.43
2019-03-26T17:16:20.960Z,96.07
2019-03-26T17:18:51.481Z,96.07
2019-03-26T17:21:22.022Z,96.56
2019-03-26T17:27:32.298Z,96.56
2019-03-26T17:30:01.703Z,96.38
2019-03-26T17:32:31.367Z,95.76
2019-03-26T17:35:02.847Z,95.41
2019-03-26T17:37:32.303Z,94.09
2019-03-26T17:40:01.709Z,93.14
2019-03-26T17:42:31.365Z,92.96
2019-03-26T17:45:00.783Z,92.58
2019-03-26T17:47:30.404Z,92.05
2019-03-26T17:50:00.956Z,91.48
2019-03-26T17:52:30.548Z,90.92
2019-03-26T17:54:59.954Z,90.69
2019-03-26T17:57:29.464Z,90.69
2019-03-26T17:59:58.909Z,91.01
2019-03-26T18:02:28.494Z,91.10
2019-03-26T18:04:59.124Z,91.00
2019-03-26T18:07:28.528Z,92.02
2019-03-26T18:09:58.013Z,92.02
2019-03-26T18:12:30.962Z,92.02
2019-03-26T18:14:58.737Z,92.29
2019-03-26T18:17:30.682Z,91.96
2019-03-26T18:20:00.384Z,91.76
2019-03-26T18:22:29.887Z,91.76
2019-03-26T18:24:59.315Z,91.66
2019-03-26T18:27:30.455Z,91.86
2019-03-26T18:30:01.962Z,92.23
2019-03-26T18:32:31.501Z,92.32
2019-03-26T18:35:01.058Z,92.21
2019-03-26T18:37:30.530Z,92.13
2019-03-26T18:40:00.361Z,92.08
2019-03-26T18:42:43.171Z,91.78
2019-03-26T18:45:00.972Z,92.03
2019-03-26T18:47:30.515Z,91.74
2019-03-26T18:49:59.977Z,91.47
2019-03-26T18:52:29.391Z,91.29
2019-03-26T18:54:58.841Z,90.98
2019-03-26T18:57:28.384Z,91.05
2019-03-26T18:59:58.930Z,91.11
2019-03-26T19:02:28.400Z,91.16
2019-03-26T19:04:57.959Z,91.50
2019-03-26T19:07:27.450Z,91.55
2019-03-26T19:09:56.875Z,91.78
2019-03-26T19:12:26.284Z,91.87
2019-03-26T19:14:55.748Z,91.10
2019-03-26T19:17:25.162Z,91.10
2019-03-26T19:19:54.589Z,91.22
2019-03-26T19:22:24.169Z,91.43
2019-03-26T19:24:53.765Z,91.88
2019-03-26T19:27:24.326Z,92.08
2019-03-26T19:29:53.828Z,92.32
2019-03-26T19:32:23.375Z,92.62
2019-03-26T19:34:52.956Z,93.10
2019-03-26T19:37:22.347Z,93.37
2019-03-26T19:39:51.765Z,93.63
2019-03-26T19:42:21.180Z,93.62
2019-03-26T19:44:50.619Z,93.65
2019-03-26T19:47:20.171Z,93.71
2019-03-26T19:49:49.603Z,93.91
2019-03-26T19:52:19.082Z,94.16
2019-03-26T19:54:48.579Z,94.43
2019-03-26T19:57:18.062Z,95.07
2019-03-26T19:59:47.597Z,95.07
2019-03-26T20:02:17.076Z,95.14
2019-03-26T20:04:46.611Z,95.25
2019-03-26T20:07:16.095Z,95.53
2019-03-26T20:09:45.521Z,95.81
2019-03-26T20:12:15.022Z,95.97
2019-03-26T20:14:44.486Z,96.05
2019-03-26T20:17:14.029Z,96.26
2019-03-26T20:19:43.509Z,96.32
2019-03-26T20:22:12.990Z,96.34
2019-03-26T20:24:44.266Z,96.44
2019-03-26T20:27:13.754Z,96.58
2019-03-26T20:29:43.266Z,96.83
2019-03-26T20:32:12.670Z,96.87
2019-03-26T20:34:42.406Z,96.91
2019-03-26T20:37:12.244Z,96.89
2019-03-26T20:39:41.645Z,97.00
2019-03-26T20:42:11.139Z,97.15
2019-03-26T20:44:41.778Z,97.27
2019-03-26T20:47:11.267Z,97.37
2019-03-26T20:49:40.789Z,97.19
2019-03-26T20:52:10.495Z,96.90
2019-03-26T20:54:40.001Z,96.72
2019-03-26T20:57:09.625Z,96.54
2019-03-26T20:59:39.167Z,96.37
2019-03-26T21:02:08.735Z,95.99
2019-03-26T21:04:38.493Z,95.37
2019-03-26T21:07:08.023Z,94.75
2019-03-26T21:09:37.580Z,94.48
2019-03-26T21:12:07.090Z,94.05
2019-03-26T21:14:36.568Z,94.06
2019-03-26T21:17:06.129Z,94.52
2019-03-26T21:19:35.535Z,95.25
2019-03-26T21:22:05.022Z,95.51
2019-03-26T21:24:34.509Z,95.10
2019-03-26T21:27:04.041Z,93.54
2019-03-26T21:29:33.523Z,92.51
2019-03-26T21:32:03.057Z,92.49
2019-03-26T21:34:32.707Z,93.06
2019-03-26T21:37:02.384Z,93.46
2019-03-26T21:39:31.786Z,93.17
2019-03-26T21:42:01.237Z,92.32
2019-03-26T21:44:31.715Z,91.98
2019-03-26T21:47:01.246Z,92.02
2019-03-26T21:49:30.717Z,91.80
2019-03-26T21:52:00.266Z,90.54
2019-03-26T21:54:29.752Z,89.23
2019-03-26T21:56:59.286Z,89.13
2019-03-26T21:59:28.833Z,88.89
2019-03-26T22:01:58.344Z,88.71
2019-03-26T22:04:27.931Z,88.42
2019-03-26T22:06:58.442Z,88.50
2019-03-26T22:09:28.039Z,88.46
2019-03-26T22:11:57.691Z,88.61
2019-03-26T22:14:27.272Z,88.70
2019-03-26T22:16:56.831Z,88.50
2019-03-26T22:19:28.908Z,88.50
2019-03-26T22:21:57.641Z,88.41
2019-03-26T22:24:27.115Z,88.24
2019-03-26T22:26:56.646Z,88.45
2019-03-26T22:29:26.117Z,88.55
2019-03-26T22:31:55.639Z,88.36
2019-03-26T22:34:25.044Z,87.94
2019-03-26T22:36:54.553Z,87.80
2019-03-26T22:39:24.029Z,88.42
2019-03-26T22:41:53.497Z,88.48
2019-03-26T22:44:31.341Z,87.87
2019-03-26T22:46:54.061Z,87.98
2019-03-26T22:49:23.645Z,87.59
2019-03-26T22:51:53.138Z,86.91
2019-03-26T22:54:23.620Z,86.76
2019-03-26T22:56:53.136Z,86.87
2019-03-26T22:59:22.562Z,87.08
2019-03-26T23:01:53.454Z,87.10
2019-03-26T23:04:23.030Z,87.24
2019-03-26T23:06:52.622Z,87.75
2019-03-26T23:09:23.207Z,87.64
2019-03-26T23:11:53.144Z,87.81
2019-03-26T23:14:22.872Z,87.96
2019-03-26T23:16:52.552Z,87.75
2019-03-26T23:19:22.115Z,87.97
2019-03-26T23:21:51.572Z,88.03
2019-03-26T23:24:21.001Z,87.85
2019-03-26T23:26:50.462Z,87.81
2019-03-26T23:29:20.049Z,87.84
2019-03-26T23:31:49.600Z,87.72
2019-03-26T23:34:19.149Z,87.94
2019-03-26T23:36:48.620Z,88.19
2019-03-26T23:39:18.143Z,88.59
2019-03-26T23:41:47.612Z,88.92
2019-03-26T23:44:25.771Z,89.12
2019-03-26T23:46:48.156Z,89.49
2019-03-26T23:49:19.554Z,89.74
2019-03-26T23:51:48.976Z,89.97
2019-03-26T23:54:18.523Z,90.43
2019-03-26T23:56:47.991Z,90.76
2019-03-26T23:59:17.497Z,90.99
